Time;durP1;ratioP1;P1;durP2;ratioP2;P2;SDS_P1;SDS_P2;PMS_P1;PMS_P2;Temp;Humidity;BMP_temperature;BMP_pressure;BME280_temperature;BME280_humidity;BME280_pressure;Samples;Min_cycle;Max_cycle;Signal;HPM_P1;HPM_P2
2023/05/05 00:00:54;;;;;;;13.23;6.85;;;13.20;99.90;;;;;;4861084;28;93289;-34
2023/05/05 00:03:20;;;;;;;9.95;7.68;;;13.20;99.90;;;;;;4870050;28;94833;-32
2023/05/05 00:05:48;;;;;;;8.48;6.72;;;13.20;99.90;;;;;;4860155;28;95139;-35
2023/05/05 00:08:13;;;;;;;11.70;6.20;;;13.20;99.90;;;;;;4859307;28;96358;-30
2023/05/05 00:10:40;;;;;;;10.23;7.30;;;13.20;99.90;;;;;;4871416;28;94394;-31
2023/05/05 00:13:05;;;;;;;10.43;6.32;;;13.10;99.90;;;;;;4860490;28;95269;-31
2023/05/05 00:15:31;;;;;;;8.88;5.47;;;13.20;99.90;;;;;;4872907;28;95447;-31
2023/05/05 00:17:56;;;;;;;8.85;6.78;;;13.20;99.90;;;;;;4877277;28;92263;-30
2023/05/05 00:20:22;;;;;;;11.75;8.57;;;13.10;99.90;;;;;;4878492;28;92323;-32
2023/05/05 00:22:48;;;;;;;13.35;7.75;;;13.10;99.90;;;;;;4865529;28;95659;-32
2023/05/05 00:25:13;;;;;;;8.93;6.40;;;13.10;99.90;;;;;;4879032;28;95140;-33
2023/05/05 00:27:39;;;;;;;7.97;6.57;;;13.00;99.90;;;;;;4878765;28;92858;-33
2023/05/05 00:30:05;;;;;;;10.43;7.55;;;13.00;99.90;;;;;;4878850;28;93956;-33
2023/05/05 00:32:31;;;;;;;8.32;6.45;;;13.00;99.90;;;;;;4877965;28;98457;-32
2023/05/05 00:34:56;;;;;;;9.73;6.75;;;12.90;99.90;;;;;;4878308;28;95949;-33
2023/05/05 00:37:22;;;;;;;11.07;7.07;;;13.00;99.90;;;;;;4878733;28;94727;-34
2023/05/05 00:39:48;;;;;;;8.23;6.85;;;12.90;99.90;;;;;;4892966;28;92628;-33
2023/05/05 00:42:13;;;;;;;10.75;7.38;;;12.90;99.90;;;;;;4873241;28;94603;-34
2023/05/05 00:44:40;;;;;;;8.15;6.90;;;12.90;99.90;;;;;;4869444;28;95136;-33
2023/05/05 00:47:07;;;;;;;16.73;6.82;;;12.80;99.90;;;;;;4879118;28;93133;-34
2023/05/05 00:49:34;;;;;;;9.07;7.60;;;12.70;99.90;;;;;;4881202;28;92685;-32
2023/05/05 00:52:01;;;;;;;9.93;6.22;;;12.80;99.90;;;;;;4880471;28;95110;-34
2023/05/05 00:54:27;;;;;;;9.00;7.72;;;12.70;99.90;;;;;;4880993;28;94508;-35
2023/05/05 00:56:53;;;;;;;10.98;7.07;;;12.70;99.90;;;;;;4880768;28;94995;-33
2023/05/05 00:59:19;;;;;;;10.43;7.22;;;12.70;99.90;;;;;;4881081;28;93178;-31
2023/05/05 01:01:45;;;;;;;8.57;7.68;;;12.70;99.90;;;;;;4878208;28;95913;-30
2023/05/05 01:04:10;;;;;;;8.45;6.28;;;12.60;99.90;;;;;;4865764;28;96148;-33
2023/05/05 01:06:54;;;;;;;8.90;6.65;;;12.60;99.90;;;;;;4869204;28;94093;-35
2023/05/05 01:09:48;;;;;;;9.05;6.45;;;12.60;99.90;;;;;;4866651;28;94480;-31
2023/05/05 01:12:28;;;;;;;7.35;6.32;;;12.60;99.90;;;;;;4865598;28;94792;-33
2023/05/05 01:15:04;;;;;;;7.57;6.07;;;12.50;99.90;;;;;;4866349;28;95404;-31
2023/05/05 01:17:41;;;;;;;5.97;5.07;;;12.50;99.90;;;;;;4866002;28;92355;-32
2023/05/05 01:20:31;;;;;;;8.52;7.10;;;12.50;99.90;;;;;;4881206;28;93874;-36
2023/05/05 01:23:05;;;;;;;6.38;5.68;;;12.40;99.90;;;;;;4879855;28;96911;-30
2023/05/05 01:26:20;;;;;;;6.13;5.40;;;12.40;99.90;;;;;;4880902;28;95090;-33
2023/05/05 01:29:16;;;;;;;8.13;7.32;;;12.40;99.90;;;;;;4881865;28;93678;-29
2023/05/05 01:31:52;;;;;;;19.40;7.10;;;12.30;99.90;;;;;;4878908;28;92655;-31
2023/05/05 01:34:23;;;;;;;9.90;6.57;;;12.30;99.90;;;;;;4879730;28;94916;-34
2023/05/05 01:37:01;;;;;;;6.15;5.50;;;12.30;99.90;;;;;;4880616;28;94497;-33
2023/05/05 01:39:30;;;;;;;13.35;6.90;;;12.30;99.90;;;;;;4880983;28;94201;-32
2023/05/05 01:41:58;;;;;;;8.68;5.82;;;12.40;99.90;;;;;;4880935;28;93605;-35
2023/05/05 01:44:26;;;;;;;7.65;6.35;;;12.30;99.90;;;;;;4880246;28;92960;-35
2023/05/05 01:46:53;;;;;;;7.57;5.95;;;12.30;99.90;;;;;;4880573;28;94610;-33
2023/05/05 01:49:19;;;;;;;10.02;6.75;;;12.40;99.90;;;;;;4880740;28;93226;-30
2023/05/05 01:51:46;;;;;;;11.73;6.20;;;12.30;99.90;;;;;;4880134;28;94023;-34
2023/05/05 01:54:14;;;;;;;10.55;5.95;;;12.30;99.90;;;;;;4879404;28;94732;-31
2023/05/05 01:56:40;;;;;;;6.85;5.95;;;12.30;99.90;;;;;;4880508;28;94837;-31
2023/05/05 01:59:08;;;;;;;15.43;5.40;;;12.30;99.90;;;;;;4880384;28;93405;-34
2023/05/05 02:01:37;;;;;;;6.60;4.93;;;12.20;99.90;;;;;;4880169;28;93577;-34
2023/05/05 02:04:05;;;;;;;7.18;6.43;;;12.30;99.90;;;;;;4881072;28;94436;-30
2023/05/05 02:06:32;;;;;;;;;;;12.30;99.90;;;;;;4868671;28;95443;-30
2023/05/05 02:08:58;;;;;;;7.40;6.28;;;12.20;99.90;;;;;;4874150;28;93386;-33
2023/05/05 02:11:26;;;;;;;6.90;5.90;;;12.20;99.90;;;;;;4861095;28;92399;-31
2023/05/05 02:13:53;;;;;;;13.93;6.90;;;12.20;99.90;;;;;;4862182;28;96326;-31
2023/05/05 02:16:20;;;;;;;8.50;6.63;;;12.10;99.90;;;;;;4862211;28;94372;-35
2023/05/05 02:18:47;;;;;;;7.38;6.68;;;12.20;99.90;;;;;;4871861;28;92727;-32
2023/05/05 02:21:13;;;;;;;11.07;7.28;;;12.20;99.90;;;;;;4878819;28;94106;-32
2023/05/05 02:23:39;;;;;;;8.88;5.05;;;12.20;99.90;;;;;;4879965;28;94980;-35
2023/05/05 02:26:10;;;;;;;8.40;6.57;;;12.10;99.90;;;;;;4877657;28;94766;-33
2023/05/05 02:28:46;;;;;;;10.13;5.75;;;12.10;99.90;;;;;;4880448;28;93226;-31
2023/05/05 02:31:15;;;;;;;6.97;5.70;;;12.10;99.90;;;;;;4878791;28;92969;-31
2023/05/05 02:33:43;;;;;;;9.00;6.10;;;12.20;99.90;;;;;;4878292;28;95038;-31
2023/05/05 02:36:20;;;;;;;7.05;6.35;;;12.10;99.90;;;;;;4867991;28;94998;-33
2023/05/05 02:38:50;;;;;;;8.77;6.37;;;12.10;99.90;;;;;;4880613;28;95358;-34
2023/05/05 02:41:18;;;;;;;7.55;6.30;;;12.10;99.90;;;;;;4879041;28;93971;-34
2023/05/05 02:43:45;;;;;;;;;;;12.10;99.90;;;;;;4879959;28;94993;-30
2023/05/05 02:46:10;;;;;;;10.32;6.65;;;12.00;99.90;;;;;;4879557;28;94276;-31
2023/05/05 02:48:36;;;;;;;11.60;6.28;;;12.00;99.90;;;;;;4879171;28;93944;-30
2023/05/05 02:51:01;;;;;;;8.18;6.03;;;12.00;99.90;;;;;;4878968;28;94700;-32
2023/05/05 02:53:28;;;;;;;6.40;5.75;;;11.90;99.90;;;;;;4874909;28;94503;-29
2023/05/05 02:56:11;;;;;;;8.55;7.05;;;12.00;99.90;;;;;;4878094;28;94468;-31
2023/05/05 02:58:47;;;;;;;10.07;5.90;;;11.90;99.90;;;;;;4877308;28;92695;-30
2023/05/05 03:01:37;;;;;;;6.82;5.93;;;11.90;99.90;;;;;;4874949;28;92649;-33
2023/05/05 03:04:10;;;;;;;8.25;6.20;;;11.90;99.90;;;;;;4868232;28;95784;-32
2023/05/05 03:06:40;;;;;;;8.27;5.97;;;11.80;99.90;;;;;;4878849;28;95647;-33
2023/05/05 03:09:20;;;;;;;8.35;7.38;;;11.80;99.90;;;;;;4869547;28;92132;-33
2023/05/05 03:11:48;;;;;;;7.90;6.43;;;11.80;99.90;;;;;;4875387;28;94775;-31
2023/05/05 03:14:18;;;;;;;11.02;5.97;;;11.70;99.90;;;;;;4868241;28;94696;-35
2023/05/05 03:16:45;;;;;;;8.70;7.40;;;11.70;99.90;;;;;;4860642;28;93971;-30
2023/05/05 03:19:15;;;;;;;7.47;6.27;;;11.80;99.90;;;;;;4872342;28;94721;-33
2023/05/05 03:21:41;;;;;;;9.60;6.93;;;11.80;99.90;;;;;;4861221;28;93340;-31
2023/05/05 03:24:14;;;;;;;7.82;6.90;;;11.70;99.90;;;;;;4872818;28;95070;-32
2023/05/05 03:26:40;;;;;;;7.13;6.43;;;11.80;99.90;;;;;;4860825;28;94836;-32
2023/05/05 03:29:05;;;;;;;8.30;6.97;;;11.60;99.90;;;;;;4860081;28;94402;-34
2023/05/05 03:31:31;;;;;;;8.13;7.32;;;11.60;99.90;;;;;;4860760;28;93113;-33
2023/05/05 03:33:57;;;;;;;12.63;7.72;;;11.50;99.90;;;;;;4860984;28;94794;-33
2023/05/05 03:36:23;;;;;;;7.25;6.55;;;11.60;99.90;;;;;;4872824;28;94712;-31
2023/05/05 03:38:48;;;;;;;6.90;6.25;;;11.50;99.90;;;;;;4862017;28;92405;-34
2023/05/05 03:41:14;;;;;;;8.68;6.78;;;11.40;99.90;;;;;;4860738;28;93866;-31
2023/05/05 03:43:40;;;;;;;13.40;8.25;;;11.50;99.90;;;;;;4860933;28;95424;-29
2023/05/05 03:46:05;;;;;;;7.75;6.82;;;11.50;99.90;;;;;;4868162;28;94448;-35
2023/05/05 03:48:32;;;;;;;9.40;7.25;;;11.30;99.90;;;;;;4878899;28;92338;-34
2023/05/05 03:50:58;;;;;;;11.98;7.55;;;11.20;99.90;;;;;;4860969;28;93077;-32
2023/05/05 03:53:24;;;;;;;8.65;7.07;;;11.20;99.90;;;;;;4861108;28;95620;-33
2023/05/05 03:55:51;;;;;;;7.53;6.82;;;11.20;99.90;;;;;;4865795;28;94399;-33
2023/05/05 03:58:17;;;;;;;11.10;8.07;;;11.20;99.90;;;;;;4867114;28;93995;-32
2023/05/05 04:00:43;;;;;;;7.80;7.00;;;11.30;99.90;;;;;;4861710;28;92405;-31
2023/05/05 04:03:09;;;;;;;9.80;7.32;;;11.40;99.90;;;;;;4872812;28;94417;-32
2023/05/05 04:05:35;;;;;;;10.52;7.53;;;11.40;99.90;;;;;;4860493;28;94478;-31
2023/05/05 04:08:02;;;;;;;9.10;6.80;;;11.30;99.90;;;;;;4893891;23;93084;-34
2023/05/05 04:10:30;;;;;;;10.73;7.65;;;11.20;99.90;;;;;;4841720;28;91824;-30
2023/05/05 04:12:57;;;;;;;8.82;7.60;;;11.20;99.90;;;;;;4854478;28;94309;-31
2023/05/05 04:15:22;;;;;;;9.63;7.28;;;11.20;99.90;;;;;;4849367;28;94487;-35
2023/05/05 04:17:48;;;;;;;9.55;8.57;;;11.20;99.90;;;;;;4848924;28;95158;-33
2023/05/05 04:20:13;;;;;;;9.90;9.00;;;11.30;99.90;;;;;;4858950;28;93428;-34
2023/05/05 04:22:39;;;;;;;16.65;7.88;;;11.30;99.90;;;;;;4859177;28;93327;-35
2023/05/05 04:25:05;;;;;;;13.57;9.75;;;11.20;99.90;;;;;;4860061;28;94295;-32
2023/05/05 04:27:31;;;;;;;9.23;7.95;;;11.00;99.90;;;;;;4845679;28;92317;-36
2023/05/05 04:29:56;;;;;;;11.75;9.00;;;10.80;99.90;;;;;;4850130;28;94855;-30
2023/05/05 04:32:22;;;;;;;15.05;9.02;;;10.70;99.90;;;;;;4844084;28;94671;-30
2023/05/05 04:34:48;;;;;;;13.13;10.60;;;10.60;99.90;;;;;;4841433;28;94316;-31
2023/05/05 04:37:13;;;;;;;10.63;7.88;;;10.60;99.90;;;;;;4843991;28;92169;-33
2023/05/05 04:39:40;;;;;;;11.57;9.20;;;10.60;99.90;;;;;;4850815;28;94723;-31
2023/05/05 04:42:06;;;;;;;12.88;8.52;;;10.50;99.90;;;;;;4839714;28;95718;-34
2023/05/05 04:44:32;;;;;;;16.60;8.90;;;10.50;99.90;;;;;;4841526;28;95728;-30
2023/05/05 04:46:59;;;;;;;14.98;8.55;;;10.40;99.90;;;;;;4841185;28;93492;-33
2023/05/05 04:49:25;;;;;;;17.77;8.75;;;10.50;99.90;;;;;;4841516;28;93539;-33
2023/05/05 04:51:50;;;;;;;11.18;9.18;;;10.60;99.90;;;;;;4841714;28;94751;-33
2023/05/05 04:54:16;;;;;;;14.82;8.63;;;10.50;99.90;;;;;;4840761;28;94494;-33
2023/05/05 04:56:42;;;;;;;10.23;9.15;;;10.50;99.90;;;;;;4842455;28;92291;-34
2023/05/05 04:59:07;;;;;;;12.02;9.85;;;10.40;99.90;;;;;;4841933;28;92313;-32
2023/05/05 05:01:33;;;;;;;10.65;9.50;;;10.40;99.90;;;;;;4842797;28;94885;-32
2023/05/05 05:03:58;;;;;;;12.52;9.40;;;10.30;99.90;;;;;;4853244;28;95546;-30
2023/05/05 05:06:24;;;;;;;16.80;8.57;;;10.30;99.90;;;;;;4847388;28;95576;-30
2023/05/05 05:08:49;;;;;;;13.40;8.18;;;10.40;99.90;;;;;;4852118;28;93019;-35
2023/05/05 05:11:15;;;;;;;17.00;10.68;;;10.50;99.90;;;;;;4846303;28;93953;-30
2023/05/05 05:13:41;;;;;;;13.40;9.35;;;10.70;99.90;;;;;;4844973;28;94695;-32
2023/05/05 05:16:06;;;;;;;12.60;9.35;;;10.70;99.90;;;;;;4846846;28;94651;-34
2023/05/05 05:18:32;;;;;;;10.85;9.55;;;10.60;99.90;;;;;;4851307;28;93022;-29
2023/05/05 05:20:57;;;;;;;9.32;7.65;;;10.60;99.90;;;;;;4858196;28;96425;-33
2023/05/05 05:23:23;;;;;;;11.07;8.05;;;10.50;99.90;;;;;;4859279;28;94601;-33
2023/05/05 05:25:49;;;;;;;10.55;9.52;;;10.40;99.90;;;;;;4858569;28;93954;-34
2023/05/05 05:28:15;;;;;;;13.50;8.73;;;10.50;99.90;;;;;;4858405;28;92705;-31
2023/05/05 05:30:40;;;;;;;14.05;9.88;;;10.40;99.90;;;;;;4857746;28;95430;-29
2023/05/05 05:33:06;;;;;;;15.70;9.65;;;10.40;99.90;;;;;;4860647;28;95031;-35
2023/05/05 05:35:31;;;;;;;10.23;9.15;;;10.40;99.90;;;;;;4862069;28;93457;-30
2023/05/05 05:37:57;;;;;;;18.75;9.73;;;10.40;99.90;;;;;;4862042;28;93460;-32
2023/05/05 05:40:23;;;;;;;13.07;9.27;;;10.40;99.90;;;;;;4858500;28;94371;-30
2023/05/05 05:42:48;;;;;;;13.85;9.40;;;10.50;99.90;;;;;;4862795;28;94583;-32
2023/05/05 05:45:14;;;;;;;10.90;9.43;;;10.50;99.90;;;;;;4860812;28;92225;-32
2023/05/05 05:47:39;;;;;;;13.35;9.63;;;10.50;99.90;;;;;;4862452;28;93395;-32
2023/05/05 05:50:06;;;;;;;12.48;8.32;;;10.50;99.90;;;;;;4861120;28;94933;-30
2023/05/05 05:52:32;;;;;;;13.20;9.63;;;10.50;99.90;;;;;;4861285;28;94487;-33
2023/05/05 05:54:57;;;;;;;11.93;9.77;;;10.50;99.90;;;;;;4860820;28;94256;-32
2023/05/05 05:57:23;;;;;;;10.35;9.05;;;10.60;99.90;;;;;;4861455;28;93087;-33
2023/05/05 05:59:49;;;;;;;11.25;9.48;;;10.70;99.90;;;;;;4861080;28;94922;-30
2023/05/05 06:02:15;;;;;;;18.80;11.25;;;10.90;99.90;;;;;;4861610;28;93351;-30
2023/05/05 06:04:41;;;;;;;12.55;8.57;;;11.00;99.90;;;;;;4849813;28;95030;-34
2023/05/05 06:07:06;;;;;;;11.10;8.68;;;11.00;99.90;;;;;;4861766;28;94303;-33
2023/05/05 06:09:32;;;;;;;14.63;10.48;;;11.20;99.90;;;;;;4861312;28;94580;-36
2023/05/05 06:11:57;;;;;;;10.93;9.80;;;11.30;99.90;;;;;;4855466;28;97243;-29
2023/05/05 06:14:23;;;;;;;9.15;8.15;;;11.30;99.90;;;;;;4842501;28;94026;-31
2023/05/05 06:16:49;;;;;;;14.13;8.00;;;11.20;99.90;;;;;;4862304;28;94071;-35
2023/05/05 06:19:15;;;;;;;10.73;9.30;;;11.30;99.90;;;;;;4860888;28;98417;-30
2023/05/05 06:21:41;;;;;;;13.52;10.35;;;11.30;99.90;;;;;;4861514;28;94158;-31
2023/05/05 06:24:06;;;;;;;10.27;9.00;;;11.30;99.90;;;;;;4861182;28;92070;-31
2023/05/05 06:26:32;;;;;;;10.50;8.98;;;11.20;99.90;;;;;;4854250;28;94233;-31
2023/05/05 06:28:58;;;;;;;16.38;9.80;;;11.20;99.90;;;;;;4844147;28;94414;-35
2023/05/05 06:31:23;;;;;;;10.57;9.23;;;11.20;99.90;;;;;;4861295;28;94264;-33
2023/05/05 06:33:49;;;;;;;10.00;8.75;;;11.30;99.90;;;;;;4847634;28;95029;-36
2023/05/05 06:36:15;;;;;;;11.80;9.15;;;11.30;99.90;;;;;;4851176;28;92841;-29
2023/05/05 06:38:40;;;;;;;10.60;8.98;;;11.40;99.90;;;;;;4860015;28;94915;-31
2023/05/05 06:41:06;;;;;;;10.60;9.05;;;11.40;99.90;;;;;;4861670;28;95162;-34
2023/05/05 06:43:32;;;;;;;9.18;8.25;;;11.50;99.90;;;;;;4859048;28;95208;-34
2023/05/05 06:45:57;;;;;;;11.93;9.13;;;11.60;99.90;;;;;;4861390;28;93472;-31
2023/05/05 06:48:23;;;;;;;9.80;8.77;;;11.60;99.90;;;;;;4860069;28;95037;-31
2023/05/05 06:50:49;;;;;;;12.38;8.98;;;11.70;99.90;;;;;;4860638;28;94889;-33
2023/05/05 06:53:14;;;;;;;16.40;10.55;;;11.70;99.90;;;;;;4860599;28;94476;-31
2023/05/05 06:55:46;;;;;;;14.98;9.10;;;11.80;99.90;;;;;;4859266;28;92589;-34
2023/05/05 06:58:12;;;;;;;9.95;9.00;;;11.80;99.90;;;;;;4858049;28;94271;-33
2023/05/05 07:00:39;;;;;;;13.85;10.40;;;11.90;99.90;;;;;;4843204;28;94463;-34
2023/05/05 07:03:04;;;;;;;10.95;9.45;;;11.90;99.90;;;;;;4855176;28;94670;-31
2023/05/05 07:05:30;;;;;;;12.02;10.40;;;12.00;99.90;;;;;;4858831;28;94641;-32
2023/05/05 07:07:56;;;;;;;11.90;10.15;;;12.10;99.90;;;;;;4859425;28;95474;-34
2023/05/05 07:10:23;;;;;;;16.13;10.85;;;12.20;99.90;;;;;;4864471;28;96746;-33
2023/05/05 07:12:50;;;;;;;14.63;10.55;;;12.40;99.90;;;;;;4842596;28;93356;-30
2023/05/05 07:15:16;;;;;;;13.20;10.73;;;12.50;99.90;;;;;;4847947;28;92191;-32
2023/05/05 07:17:41;;;;;;;15.98;10.45;;;12.50;99.90;;;;;;4849910;28;95043;-32
2023/05/05 07:20:08;;;;;;;12.50;11.25;;;12.50;99.90;;;;;;4850689;28;96328;-30
2023/05/05 07:22:34;;;;;;;13.75;12.20;;;12.70;99.90;;;;;;4841313;28;92300;-32
2023/05/05 07:25:01;;;;;;;12.52;10.90;;;13.10;99.90;;;;;;4849868;28;94076;-31
2023/05/05 07:27:26;;;;;;;12.45;10.20;;;13.50;99.90;;;;;;4844763;28;94854;-31
2023/05/05 07:29:52;;;;;;;11.38;9.93;;;13.70;99.90;;;;;;4841993;28;93712;-34
2023/05/05 07:32:17;;;;;;;12.95;11.38;;;13.80;99.90;;;;;;4841848;28;94297;-36
2023/05/05 07:34:43;;;;;;;15.18;10.73;;;14.20;99.90;;;;;;4841927;28;93267;-31
2023/05/05 07:37:08;;;;;;;15.32;12.15;;;14.40;99.90;;;;;;4839767;28;96525;-32
2023/05/05 07:39:34;;;;;;;18.27;11.48;;;14.50;99.90;;;;;;4841527;28;95212;-31
2023/05/05 07:42:00;;;;;;;13.82;12.23;;;14.50;99.90;;;;;;4854239;28;93263;-31
2023/05/05 07:44:26;;;;;;;15.75;11.75;;;14.70;99.90;;;;;;4849223;28;93659;-33
2023/05/05 07:46:52;;;;;;;15.15;11.38;;;15.00;99.90;;;;;;4847839;28;95652;-30
2023/05/05 07:49:18;;;;;;;15.38;12.23;;;15.30;99.90;;;;;;4851546;28;94915;-32
2023/05/05 07:51:44;;;;;;;13.98;12.50;;;15.10;99.90;;;;;;4842221;28;92395;-35
2023/05/05 07:54:10;;;;;;;17.08;12.63;;;15.20;99.90;;;;;;4841781;28;93797;-34
2023/05/05 07:56:36;;;;;;;13.40;11.80;;;15.40;99.90;;;;;;4841274;28;95559;-35
2023/05/05 07:59:02;;;;;;;19.20;13.25;;;15.40;99.90;;;;;;4839829;28;95420;-35
2023/05/05 08:01:27;;;;;;;15.20;12.00;;;15.70;99.90;;;;;;4854489;28;94028;-33
2023/05/05 08:03:53;;;;;;;14.73;13.20;;;16.20;99.90;;;;;;4859236;28;93233;-31
2023/05/05 08:06:23;;;;;;;18.38;14.18;;;16.50;99.90;;;;;;4859461;28;94648;-31
2023/05/05 08:08:50;;;;;;;17.55;13.85;;;16.50;99.90;;;;;;4847511;28;94330;-31
2023/05/05 08:11:16;;;;;;;14.77;13.27;;;16.90;99.90;;;;;;4851983;28;94477;-35
2023/05/05 08:13:44;;;;;;;17.73;15.88;;;17.20;99.90;;;;;;4855860;28;92463;-34
2023/05/05 08:16:11;;;;;;;15.85;14.18;;;17.40;99.90;;;;;;4846007;28;94390;-31
2023/05/05 08:18:37;;;;;;;20.88;13.88;;;17.80;99.90;;;;;;4859753;28;95351;-31
2023/05/05 08:21:07;;;;;;;15.95;13.93;;;18.00;99.90;;;;;;4843326;28;94946;-31
2023/05/05 08:23:34;;;;;;;18.60;13.85;;;18.20;99.90;;;;;;4849870;28;92117;-32
2023/05/05 08:26:01;;;;;;;16.25;13.00;;;18.40;99.90;;;;;;4859328;28;94679;-33
2023/05/05 08:28:26;;;;;;;16.52;14.82;;;18.60;99.90;;;;;;4858394;28;96252;-31
2023/05/05 08:30:52;;;;;;;17.38;14.70;;;18.90;99.90;;;;;;4855290;28;93240;-31
2023/05/05 08:33:17;;;;;;;17.15;15.40;;;18.90;99.90;;;;;;4840451;28;92671;-34
2023/05/05 08:35:43;;;;;;;17.63;15.80;;;19.10;99.90;;;;;;4839929;28;94530;-29
2023/05/05 08:38:10;;;;;;;16.90;14.93;;;19.10;99.90;;;;;;4850576;28;94641;-34
2023/05/05 08:40:38;;;;;;;18.30;16.27;;;19.10;99.90;;;;;;4846616;28;94299;-32
2023/05/05 08:43:04;;;;;;;19.20;16.37;;;19.40;99.90;;;;;;4852515;28;94776;-35
2023/05/05 08:45:30;;;;;;;22.75;16.13;;;19.50;99.90;;;;;;4852847;28;95638;-32
2023/05/05 08:47:59;;;;;;;17.45;15.52;;;19.70;99.90;;;;;;4850970;28;95570;-29
2023/05/05 08:50:26;;;;;;;17.10;14.40;;;19.90;99.90;;;;;;4850816;28;93282;-35
2023/05/05 08:53:45;;;;;;;20.23;15.18;;;19.90;99.90;;;;;;4847355;28;95101;-29
2023/05/05 08:56:12;;;;;;;18.25;16.20;;;20.20;99.90;;;;;;4844377;28;94810;-35
2023/05/05 08:58:40;;;;;;;18.17;15.40;;;19.80;99.90;;;;;;4854867;28;94878;-31
2023/05/05 09:01:06;;;;;;;18.27;16.48;;;20.20;99.90;;;;;;4851751;28;93264;-35
2023/05/05 09:03:34;;;;;;;20.23;15.20;;;20.20;99.90;;;;;;4857306;28;93841;-31
2023/05/05 09:06:00;;;;;;;17.00;15.32;;;20.10;99.90;;;;;;4857161;28;94947;-31
2023/05/05 09:08:26;;;;;;;15.65;13.93;;;20.40;99.90;;;;;;4854333;28;95037;-33
2023/05/05 09:10:53;;;;;;;18.40;16.48;;;20.40;99.90;;;;;;4841113;28;94108;-32
2023/05/05 09:13:19;;;;;;;18.65;16.85;;;20.60;99.90;;;;;;4853549;28;94014;-33
2023/05/05 09:15:44;;;;;;;23.15;16.35;;;20.60;99.90;;;;;;4841069;28;94813;-33
2023/05/05 09:18:13;;;;;;;18.63;15.40;;;20.60;99.90;;;;;;4846223;28;95236;-32
2023/05/05 09:20:40;;;;;;;19.08;16.25;;;20.50;99.90;;;;;;4859696;28;94017;-34
2023/05/05 09:23:09;;;;;;;17.45;15.60;;;20.20;99.90;;;;;;4844310;28;94946;-32
2023/05/05 09:25:35;;;;;;;18.33;16.17;;;20.00;99.90;;;;;;4846057;28;94814;-35
2023/05/05 09:28:14;;;;;;;17.23;15.52;;;20.40;99.90;;;;;;4848405;28;94512;-32
2023/05/05 09:30:42;;;;;;;17.00;15.40;;;20.50;99.90;;;;;;4842224;28;93240;-31
2023/05/05 09:33:08;;;;;;;18.48;16.45;;;20.60;99.90;;;;;;4840728;28;94688;-31
2023/05/05 09:35:50;;;;;;;20.50;15.05;;;20.50;99.90;;;;;;4849234;28;95386;-34
2023/05/05 09:38:17;;;;;;;17.20;15.30;;;20.50;99.00;;;;;;4848776;28;95684;-32
2023/05/05 09:40:47;;;;;;;16.77;15.13;;;20.60;99.90;;;;;;4859265;28;92715;-31
2023/05/05 09:43:13;;;;;;;19.67;15.95;;;20.80;99.90;;;;;;4847602;28;92451;-32
2023/05/05 09:45:39;;;;;;;20.23;16.63;;;20.80;99.90;;;;;;4852142;28;94881;-30
2023/05/05 09:48:05;;;;;;;16.98;15.35;;;21.00;99.90;;;;;;4847275;28;94817;-34
2023/05/05 09:50:42;;;;;;;17.98;13.88;;;21.20;99.90;;;;;;4851235;28;94075;-35
2023/05/05 09:53:09;;;;;;;15.67;14.17;;;21.60;99.90;;;;;;4847784;28;93771;-36
2023/05/05 09:55:35;;;;;;;18.63;14.65;;;21.70;99.20;;;;;;4859142;28;94501;-32
2023/05/05 09:58:18;;;;;;;18.00;14.48;;;21.70;96.40;;;;;;4857504;28;94452;-31
2023/05/05 10:00:44;;;;;;;17.95;16.08;;;21.80;97.60;;;;;;4847877;28;94261;-31
2023/05/05 10:03:10;;;;;;;15.18;13.63;;;21.80;97.50;;;;;;4855713;28;94533;-32
2023/05/05 10:06:06;;;;;;;16.10;14.48;;;21.90;93.70;;;;;;4847648;28;94782;-32
2023/05/05 10:08:33;;;;;;;18.40;16.25;;;21.80;90.50;;;;;;4858379;28;94600;-31
2023/05/05 10:11:00;;;;;;;15.27;13.85;;;21.70;99.90;;;;;;4859649;28;92583;-35
2023/05/05 10:13:26;;;;;;;17.65;14.52;;;21.70;99.30;;;;;;4854120;28;94745;-34
2023/05/05 10:15:56;;;;;;;15.88;14.18;;;21.70;99.20;;;;;;4850352;28;95779;-33
2023/05/05 10:18:27;;;;;;;16.95;15.15;;;21.60;96.00;;;;;;4854264;28;96430;-36
2023/05/05 10:20:57;;;;;;;23.92;14.48;;;21.50;96.30;;;;;;4854640;28;94256;-32
2023/05/05 10:23:26;;;;;;;16.48;14.68;;;21.50;98.20;;;;;;4854541;28;94433;-30
2023/05/05 10:25:58;;;;;;;17.38;15.57;;;21.40;98.70;;;;;;4849927;28;95984;-32
2023/05/05 10:28:40;;;;;;;20.05;16.20;;;21.40;99.90;;;;;;4857531;28;95419;-30
2023/05/05 10:31:13;;;;;;;18.30;15.18;;;21.30;99.90;;;;;;4853348;28;92258;-35
2023/05/05 10:33:48;;;;;;;20.85;16.83;;;21.20;99.90;;;;;;4849626;28;92726;-31
2023/05/05 10:36:15;;;;;;;18.38;15.57;;;21.50;99.90;;;;;;4855397;28;94561;-32
2023/05/05 10:38:42;;;;;;;16.23;13.45;;;21.50;99.90;;;;;;4852046;28;95633;-33
2023/05/05 10:41:10;;;;;;;19.70;15.73;;;21.70;99.90;;;;;;4855222;28;93278;-32
2023/05/05 10:43:36;;;;;;;15.85;13.90;;;21.90;99.90;;;;;;4852460;28;93679;-35
2023/05/05 10:46:02;;;;;;;16.80;15.10;;;21.80;99.90;;;;;;4855657;28;96726;-35
2023/05/05 10:48:40;;;;;;;17.63;15.55;;;21.70;99.90;;;;;;4850897;28;94419;-33
2023/05/05 10:51:36;;;;;;;24.45;17.65;;;21.70;98.20;;;;;;4853045;28;94831;-35
2023/05/05 10:54:23;;;;;;;28.48;18.70;;;21.80;99.90;;;;;;4849320;28;94365;-33
2023/05/05 10:56:49;;;;;;;19.27;16.25;;;21.70;98.90;;;;;;4854917;28;94642;-33
2023/05/05 10:59:36;;;;;;;22.50;15.70;;;21.90;99.90;;;;;;4858151;28;94452;-33
2023/05/05 11:02:27;;;;;;;18.90;16.13;;;22.10;99.90;;;;;;4849020;28;93481;-33
2023/05/05 11:05:15;;;;;;;16.92;15.20;;;21.70;95.20;;;;;;4858691;28;94670;-31
2023/05/05 11:07:41;;;;;;;;;;;21.80;97.20;;;;;;4858844;28;94813;-37
2023/05/05 11:10:09;;;;;;;13.95;12.07;;;21.90;93.70;;;;;;4863107;28;95390;-33
2023/05/05 11:12:53;;;;;;;15.40;13.02;;;21.70;96.10;;;;;;4858520;28;93320;-33
2023/05/05 11:15:25;;;;;;;13.02;11.63;;;21.50;91.30;;;;;;4847643;28;93090;-32
2023/05/05 11:17:52;;;;;;;11.90;9.63;;;21.40;94.60;;;;;;4857636;28;95606;-33
2023/05/05 11:20:38;;;;;;;10.30;7.90;;;21.40;92.10;;;;;;4849735;28;96835;-33
2023/05/05 11:23:04;;;;;;;6.15;5.55;;;21.60;90.70;;;;;;4854459;28;93262;-34
2023/05/05 11:25:39;;;;;;;6.95;5.80;;;21.50;80.60;;;;;;4840801;28;93464;-30
2023/05/05 11:28:09;;;;;;;6.40;5.68;;;21.40;82.70;;;;;;4852355;28;94329;-31
2023/05/05 11:30:55;;;;;;;7.60;6.28;;;21.60;81.50;;;;;;4840767;28;93371;-32
2023/05/05 11:33:29;;;;;;;8.10;7.30;;;21.70;89.30;;;;;;4850771;28;94147;-34
2023/05/05 11:35:59;;;;;;;8.38;7.25;;;21.80;85.00;;;;;;4853694;28;92351;-32
2023/05/05 11:38:47;;;;;;;8.82;7.40;;;22.00;84.50;;;;;;4839962;28;95642;-31
2023/05/05 11:41:31;;;;;;;7.25;6.55;;;22.00;82.60;;;;;;4848789;28;94210;-35
2023/05/05 11:44:27;;;;;;;10.43;8.55;;;21.60;79.30;;;;;;4841685;28;94978;-32
2023/05/05 11:46:53;;;;;;;9.98;8.98;;;21.60;86.40;;;;;;4840825;28;93350;-32
2023/05/05 11:49:39;;;;;;;8.25;7.45;;;21.70;86.00;;;;;;4840322;28;94724;-34
2023/05/05 11:52:09;;;;;;;8.57;6.45;;;21.50;85.10;;;;;;4845099;28;94139;-33
2023/05/05 11:54:40;;;;;;;6.43;5.78;;;21.30;87.60;;;;;;4847163;28;93787;-33
2023/05/05 11:57:07;;;;;;;9.15;6.78;;;21.30;88.90;;;;;;4839864;28;93185;-35
2023/05/05 11:59:36;;;;;;;13.48;7.93;;;21.30;90.60;;;;;;4839570;28;94556;-31
2023/05/05 12:02:02;;;;;;;13.48;12.15;;;21.20;92.40;;;;;;4857456;28;94860;-31
2023/05/05 12:04:30;;;;;;;14.73;12.95;;;21.20;94.90;;;;;;4857316;28;93542;-32
2023/05/05 12:06:57;;;;;;;11.73;10.30;;;21.10;96.10;;;;;;4856553;28;93827;-35
2023/05/05 12:09:23;;;;;;;11.73;10.27;;;21.10;97.20;;;;;;4866111;28;95586;-32
2023/05/05 12:11:49;;;;;;;15.00;8.05;;;21.10;99.30;;;;;;4857535;28;95506;-31
2023/05/05 12:14:15;;;;;;;8.43;7.55;;;21.10;94.10;;;;;;4857580;28;93587;-30
2023/05/05 12:16:52;;;;;;;7.97;7.18;;;20.90;98.80;;;;;;4871620;28;92624;-32
2023/05/05 12:19:17;;;;;;;10.10;7.20;;;20.90;97.20;;;;;;4856954;28;94808;-35
2023/05/05 12:21:44;;;;;;;10.38;7.07;;;20.80;99.90;;;;;;4853218;28;94583;-31
2023/05/05 12:24:12;;;;;;;11.75;8.07;;;20.80;99.60;;;;;;4851508;28;94527;-33
2023/05/05 12:26:38;;;;;;;8.73;5.63;;;20.70;97.80;;;;;;4857528;28;92666;-35
2023/05/05 12:29:03;;;;;;;13.88;5.78;;;20.60;99.90;;;;;;4856530;28;93991;-35
2023/05/05 12:31:40;;;;;;;10.93;5.72;;;20.60;99.90;;;;;;4856687;28;93873;-31
2023/05/05 12:34:07;;;;;;;10.73;4.05;;;20.60;99.90;;;;;;4856938;28;93133;-35
2023/05/05 12:36:35;;;;;;;7.13;3.43;;;20.40;96.80;;;;;;4858440;28;94571;-35
2023/05/05 12:39:01;;;;;;;4.57;4.17;;;20.30;99.90;;;;;;4854496;28;94217;-33
2023/05/05 12:41:27;;;;;;;4.55;3.38;;;19.90;99.90;;;;;;4855991;28;92417;-33
2023/05/05 12:43:57;;;;;;;5.63;2.80;;;19.90;99.90;;;;;;4857647;28;94661;-32
2023/05/05 12:46:23;;;;;;;4.93;2.95;;;19.60;99.90;;;;;;4848685;28;93122;-31